createdAt,value
2019-03-04T00:02:36.761Z,13.60
2019-03-04T00:06:57.503Z,13.10
2019-03-04T00:11:18.240Z,13.00
2019-03-04T00:15:19.114Z,12.90
2019-03-04T00:19:39.879Z,13.10
2019-03-04T00:24:00.729Z,13.30
2019-03-04T00:28:21.476Z,13.30
2019-03-04T00:32:42.250Z,13.50
2019-03-04T00:37:03.138Z,13.10
2019-03-04T00:41:23.999Z,13.50
2019-03-04T00:45:44.809Z,13.70
2019-03-04T00:50:27.682Z,13.30
2019-03-04T00:54:48.514Z,13.40
2019-03-04T00:59:09.372Z,13.20
2019-03-04T01:03:30.203Z,13.30
2019-03-04T01:07:51.022Z,13.10
2019-03-04T01:12:11.883Z,13.10
2019-03-04T01:16:32.627Z,12.80
2019-03-04T01:20:33.607Z,12.20
2019-03-04T01:24:34.561Z,12.20
2019-03-04T01:28:55.394Z,12.20
2019-03-04T01:33:16.257Z,13.00
2019-03-04T01:37:37.027Z,12.40
2019-03-04T01:41:37.992Z,12.60
2019-03-04T01:45:38.963Z,12.90
2019-03-04T01:49:39.850Z,12.60
2019-03-04T01:54:00.642Z,12.30
2019-03-04T01:58:01.624Z,12.80
2019-03-04T02:02:02.843Z,12.70
2019-03-04T02:06:23.577Z,12.40
2019-03-04T02:10:44.412Z,12.70
2019-03-04T02:14:45.318Z,12.40
2019-03-04T02:19:06.173Z,12.50
2019-03-04T02:23:26.948Z,12.90
2019-03-04T02:27:49.119Z,12.90
2019-03-04T02:32:09.974Z,13.20
2019-03-04T02:36:30.722Z,13.00
2019-03-04T02:40:51.466Z,13.10
2019-03-04T02:45:34.063Z,13.10
2019-03-04T02:49:34.962Z,13.00
2019-03-04T02:53:55.726Z,13.50
2019-03-04T02:58:16.521Z,13.10
2019-03-04T03:02:37.339Z,13.60
2019-03-04T03:06:58.072Z,13.20
2019-03-04T03:11:18.817Z,12.90
2019-03-04T03:15:39.568Z,12.80
2019-03-04T03:20:00.417Z,12.90
2019-03-04T03:24:21.258Z,13.00
2019-03-04T03:28:41.974Z,13.20
2019-03-04T03:33:02.829Z,13.50
2019-03-04T03:37:03.801Z,13.50
2019-03-04T03:41:24.670Z,13.10
2019-03-04T03:45:39.263Z,13.70
2019-03-04T03:49:53.717Z,13.20
2019-03-04T03:54:07.682Z,13.10
2019-03-04T03:58:08.672Z,13.60
2019-03-04T04:02:29.434Z,13.40
2019-03-04T04:06:50.176Z,13.20
2019-03-04T04:10:51.152Z,14.00
2019-03-04T04:15:12.817Z,13.10
2019-03-04T04:19:33.662Z,13.60
2019-03-04T04:23:54.515Z,13.20
2019-03-04T04:28:15.368Z,13.60
2019-03-04T04:32:36.125Z,13.60
2019-03-04T04:36:56.976Z,12.90
2019-03-04T04:41:17.707Z,13.40
2019-03-04T04:45:31.929Z,13.40
2019-03-04T04:49:45.965Z,13.30
2019-03-04T04:54:00.836Z,14.00
2019-03-04T04:58:15.496Z,13.20
2019-03-04T05:02:30.072Z,13.70
2019-03-04T05:06:44.916Z,13.30
2019-03-04T05:10:59.262Z,13.70
2019-03-04T05:15:13.920Z,12.90
2019-03-04T05:19:28.440Z,13.30
2019-03-04T05:23:42.367Z,13.90
2019-03-04T05:27:57.026Z,13.30
2019-03-04T05:32:11.498Z,13.00
2019-03-04T05:36:25.613Z,13.20
2019-03-04T05:40:39.915Z,13.10
2019-03-04T05:44:54.694Z,13.10
2019-03-04T05:49:09.266Z,12.60
2019-03-04T05:53:23.051Z,12.40
2019-03-04T05:57:36.831Z,11.60
2019-03-04T06:01:51.612Z,11.90
2019-03-04T06:06:06.239Z,12.40
2019-03-04T06:10:20.881Z,11.80
2019-03-04T06:14:35.373Z,11.60
2019-03-04T06:18:49.099Z,11.50
2019-03-04T06:23:03.801Z,11.00
2019-03-04T06:27:18.379Z,10.70
2019-03-04T06:31:32.931Z,11.30
2019-03-04T06:35:46.837Z,10.80
2019-03-04T06:40:01.460Z,11.30
2019-03-04T06:44:16.037Z,10.60
2019-03-04T06:48:30.490Z,11.00
2019-03-04T06:52:45.122Z,10.80
2019-03-04T06:56:59.520Z,10.70
2019-03-04T07:01:14.226Z,10.90
2019-03-04T07:05:28.701Z,11.30
2019-03-04T07:09:43.201Z,11.20
2019-03-04T07:13:57.797Z,11.50
2019-03-04T07:18:12.585Z,11.10
2019-03-04T07:22:27.064Z,11.30
2019-03-04T07:26:41.790Z,11.80
2019-03-04T07:30:42.901Z,11.80
2019-03-04T07:35:25.408Z,11.70
2019-03-04T07:39:46.171Z,11.90
2019-03-04T07:44:06.993Z,11.40
2019-03-04T07:48:21.523Z,11.70
2019-03-04T07:52:36.110Z,11.90
2019-03-04T07:56:50.779Z,11.60
2019-03-04T08:01:05.449Z,11.90
2019-03-04T08:05:20.097Z,12.10
2019-03-04T08:09:34.569Z,12.30
2019-03-04T08:13:48.930Z,12.10
2019-03-04T08:18:02.889Z,12.40
2019-03-04T08:22:17.471Z,12.10
2019-03-04T08:26:31.795Z,10.80
2019-03-04T08:30:46.279Z,11.60
2019-03-04T08:35:00.933Z,11.60
2019-03-04T08:39:15.408Z,10.50
2019-03-04T08:43:29.846Z,9.60
2019-03-04T08:47:44.248Z,8.90
2019-03-04T08:51:58.503Z,8.90
2019-03-04T08:56:12.782Z,8.40
2019-03-04T09:00:27.235Z,9.00
2019-03-04T09:04:41.650Z,9.00
2019-03-04T09:08:56.073Z,9.70
2019-03-04T09:13:10.736Z,9.60
2019-03-04T09:17:25.408Z,10.40
2019-03-04T09:21:39.991Z,10.30
2019-03-04T09:26:02.680Z,10.90
2019-03-04T09:30:23.559Z,12.30
2019-03-04T09:34:44.390Z,12.30
2019-03-04T09:39:05.470Z,13.10
2019-03-04T09:43:26.213Z,11.40
2019-03-04T09:47:40.218Z,12.80
2019-03-04T09:51:55.054Z,11.30
2019-03-04T09:56:09.797Z,12.00
2019-03-04T10:00:24.666Z,11.30
2019-03-04T10:04:39.143Z,12.10
2019-03-04T10:08:53.863Z,11.50
2019-03-04T10:13:08.268Z,12.20
2019-03-04T10:17:22.703Z,12.30
2019-03-04T10:21:37.289Z,12.20
2019-03-04T10:25:51.100Z,12.30
2019-03-04T10:30:05.809Z,12.20
2019-03-04T10:34:20.233Z,12.50
2019-03-04T10:38:35.026Z,12.90
2019-03-04T10:42:49.728Z,13.30
2019-03-04T10:47:04.530Z,13.90
2019-03-04T10:51:19.100Z,13.30
2019-03-04T10:55:41.683Z,13.30
2019-03-04T10:59:49.379Z,13.00
2019-03-04T11:04:04.259Z,13.20
2019-03-04T11:08:18.420Z,12.80
2019-03-04T11:12:33.102Z,12.80
2019-03-04T11:16:34.103Z,11.80
2019-03-04T11:20:35.012Z,11.90
2019-03-04T11:24:55.903Z,11.00
2019-03-04T11:29:16.703Z,10.90
2019-03-04T11:33:37.534Z,11.20
2019-03-04T11:42:40.849Z,12.10
2019-03-04T11:46:55.633Z,12.20
2019-03-04T11:50:56.723Z,12.00
2019-03-04T11:55:39.249Z,12.60
2019-03-04T12:00:00.073Z,12.60
2019-03-04T12:04:20.902Z,12.30
2019-03-04T12:08:41.783Z,11.80
2019-03-04T12:13:02.623Z,12.40
2019-03-04T12:17:03.709Z,11.80
2019-03-04T12:21:24.666Z,12.30
2019-03-04T12:25:45.597Z,13.10
2019-03-04T12:30:26.332Z,13.20
2019-03-04T12:34:47.179Z,13.10
2019-03-04T12:38:48.170Z,13.20
2019-03-04T12:43:08.934Z,13.00
2019-03-04T12:47:22.903Z,11.60
2019-03-04T12:51:37.407Z,9.90
2019-03-04T12:55:38.457Z,9.90
2019-03-04T12:59:39.499Z,8.20
2019-03-04T13:04:00.438Z,7.60
2019-03-04T13:08:21.169Z,8.20
2019-03-04T13:12:22.235Z,8.50
2019-03-04T13:16:43.013Z,9.10
2019-03-04T13:21:03.918Z,9.10
2019-03-04T13:25:27.123Z,8.60
2019-03-04T13:29:48.081Z,8.90
2019-03-04T13:34:08.938Z,9.40
2019-03-04T13:38:29.830Z,9.90
2019-03-04T13:42:30.824Z,10.90
2019-03-04T13:46:51.571Z,9.60
2019-03-04T13:51:12.565Z,9.40
2019-03-04T13:55:33.492Z,9.40
2019-03-04T13:59:54.252Z,9.30
2019-03-04T14:04:15.007Z,9.20
2019-03-04T14:08:16.122Z,8.80
2019-03-04T14:12:17.073Z,8.90
2019-03-04T14:16:18.223Z,8.90
2019-03-04T14:20:39.087Z,9.20
2019-03-04T14:24:59.847Z,8.80
2019-03-04T14:29:20.621Z,8.70
2019-03-04T14:33:41.581Z,8.80
2019-03-04T14:38:24.170Z,8.50
2019-03-04T14:42:25.136Z,8.20
2019-03-04T14:46:26.315Z,8.20
2019-03-04T14:50:40.483Z,6.30
2019-03-04T14:54:55.051Z,6.10
2019-03-04T14:59:10.314Z,7.40
2019-03-04T15:02:59.121Z,6.60
2019-03-04T15:06:59.991Z,6.60
2019-03-04T15:11:01.658Z,6.80
2019-03-04T15:15:23.074Z,6.80
2019-03-04T15:19:24.038Z,7.40
2019-03-04T15:23:44.810Z,7.60
2019-03-04T15:28:25.417Z,7.60
2019-03-04T15:32:46.211Z,7.50
2019-03-04T15:37:07.132Z,7.80
2019-03-04T15:41:27.866Z,8.20
2019-03-04T15:50:24.783Z,7.40
2019-03-04T15:54:39.340Z,7.60
2019-03-04T15:58:53.249Z,7.40
2019-03-04T16:03:10.291Z,7.60
2019-03-04T16:07:24.437Z,7.00
2019-03-04T16:11:25.812Z,7.30
2019-03-04T16:15:46.794Z,6.70
2019-03-04T16:20:27.393Z,7.10
2019-03-04T16:24:28.370Z,7.30
2019-03-04T16:28:29.382Z,7.20
2019-03-04T16:32:50.200Z,7.40
2019-03-04T16:37:11.040Z,7.00
2019-03-04T16:41:31.908Z,6.90
2019-03-04T16:45:52.746Z,7.00
2019-03-04T16:50:06.745Z,6.90
2019-03-04T16:54:21.266Z,6.90
2019-03-04T16:58:35.864Z,7.00
2019-03-04T17:02:50.745Z,7.70
2019-03-04T17:07:05.511Z,7.00
2019-03-04T17:11:06.576Z,7.30
2019-03-04T17:15:27.627Z,7.10
2019-03-04T17:19:48.473Z,6.60
2019-03-04T17:24:09.290Z,6.90
2019-03-04T17:28:30.028Z,7.30
2019-03-04T17:32:50.911Z,7.20
2019-03-04T17:37:11.738Z,7.50
2019-03-04T17:41:32.520Z,7.80
2019-03-04T17:45:53.577Z,7.60
2019-03-04T17:50:07.771Z,7.70
2019-03-04T17:54:22.467Z,8.00
2019-03-04T17:58:37.056Z,8.30
2019-03-04T18:02:51.701Z,8.00
2019-03-04T18:07:06.351Z,8.60
2019-03-04T18:11:20.960Z,7.40
2019-03-04T18:15:34.849Z,7.80
2019-03-04T18:19:49.560Z,8.10
2019-03-04T18:24:04.165Z,8.40
2019-03-04T18:28:18.676Z,7.80
2019-03-04T18:32:33.433Z,7.90
2019-03-04T18:36:48.042Z,8.20
2019-03-04T18:41:02.329Z,7.90
2019-03-04T18:45:19.603Z,8.00
2019-03-04T18:49:33.359Z,8.80
2019-03-04T18:53:48.001Z,8.50
2019-03-04T18:58:02.509Z,8.10
2019-03-04T19:02:17.187Z,8.90
2019-03-04T19:06:18.336Z,8.50
2019-03-04T19:10:39.416Z,9.20
2019-03-04T19:15:00.310Z,8.30
2019-03-04T19:19:21.285Z,8.30
2019-03-04T19:23:42.138Z,8.20
2019-03-04T19:28:03.069Z,7.60
2019-03-04T19:32:23.975Z,8.50
2019-03-04T19:36:45.048Z,7.90
2019-03-04T19:40:46.129Z,9.00
2019-03-04T19:45:26.890Z,8.80
2019-03-04T19:49:41.340Z,8.40
2019-03-04T19:53:55.883Z,8.20
2019-03-04T19:58:10.569Z,8.70
2019-03-04T20:02:25.339Z,8.40
2019-03-04T20:06:40.330Z,8.30
2019-03-04T20:10:54.306Z,8.70
2019-03-04T20:15:08.938Z,9.30
2019-03-04T20:19:22.880Z,8.40
2019-03-04T20:23:37.140Z,9.10
2019-03-04T20:27:51.808Z,9.50
2019-03-04T20:32:06.478Z,9.30
2019-03-04T20:36:20.805Z,7.90
2019-03-04T20:40:35.396Z,9.30
2019-03-04T20:44:50.050Z,9.30
2019-03-04T20:49:04.880Z,8.40
2019-03-04T20:53:19.427Z,9.00
2019-03-04T20:57:34.067Z,9.10
2019-03-04T21:01:48.454Z,8.40
2019-03-04T21:05:49.407Z,8.30
2019-03-04T21:10:11.024Z,9.00
2019-03-04T21:14:31.977Z,9.20
2019-03-04T21:18:52.753Z,8.60
2019-03-04T21:22:53.925Z,7.70
2019-03-04T21:27:14.837Z,8.70
2019-03-04T21:31:57.480Z,9.40
2019-03-04T21:36:38.227Z,8.90
2019-03-04T21:41:20.871Z,7.70
2019-03-04T21:46:01.645Z,7.50
2019-03-04T21:50:15.717Z,7.50
2019-03-04T21:54:30.454Z,7.20
2019-03-04T21:58:45.284Z,7.70
2019-03-04T22:02:59.923Z,7.30
2019-03-04T22:07:14.568Z,7.10
2019-03-04T22:11:31.104Z,7.00
2019-03-04T22:15:46.035Z,6.90
2019-03-04T22:20:00.635Z,6.80
2019-03-04T22:24:15.242Z,7.40
2019-03-04T22:28:29.929Z,6.80
2019-03-04T22:32:44.205Z,7.10
2019-03-04T22:36:58.707Z,7.30
2019-03-04T22:41:13.908Z,7.50
2019-03-04T22:45:56.596Z,7.90
2019-03-04T22:50:10.788Z,7.20
2019-03-04T22:54:25.521Z,7.10
2019-03-04T22:58:42.625Z,6.60
2019-03-04T23:02:56.636Z,6.80
2019-03-04T23:07:11.868Z,6.60
2019-03-04T23:20:43.849Z,6.90
2019-03-04T23:25:27.361Z,6.80
2019-03-04T23:29:49.540Z,6.40
2019-03-04T23:34:10.749Z,6.80
2019-03-04T23:38:53.268Z,6.90
2019-03-04T23:43:14.369Z,6.60
2019-03-04T23:47:37.019Z,6.50
2019-03-04T23:51:52.917Z,6.80
2019-03-04T23:56:09.076Z,6.20
